Eurodam — PHOS — position and weather

sailwx.info

Track history (hours):
 
Tides and Currents Weather Stations Pressure Air Temp Water Temp Dewpoint Dewpoint Depression Visibility Wind Speed Wind Dir Waves Ship Positions

Eurodam (Netherlands)

Last reported at 2017-Aug-16 07:47 UTC. Time now 2017-Aug-16 21:37 UTC.
Position N 58°18' W 136°14'.

Length 287 m; draft 8 m.

Type: Ship. MMSI: 245206000.

Date/timePositionNaut miles runAvg speedWind from/ knotsBaromVisibWave heightAir tempDewpointWater temp
2017-Aug-16 07:47N 58°18' W 136°14'619.6
2017-Aug-16 07:30N 58°20' W 136°04'1019.9
2017-Aug-16 07:00N 58°18' W 135°45'1019.1
2017-Aug-16 06:28N 58°13' W 135°28'1 0.1
2017-Aug-16 01:13N 58°13' W 135°27'418.6
2017-Aug-16 01:00N 58°14' W 135°34'918.6
2017-Aug-16 00:30N 58°19' W 135°50'714.3
2017-Aug-16 00:00N 58°24' W 135°58'611.5
2017-Aug-15 23:30N 58°29' W 136°03'815.2
2017-Aug-15 23:00N 58°37' W 136°03'714.6
2017-Aug-15 22:30N 58°43' W 136°11'3 0.5
2017-Aug-15 15:41N 58°45' W 136°16'312.4
2017-Aug-15 15:28N 58°43' W 136°13'612.3
2017-Aug-15 14:57N 58°38' W 136°06'612.8
2017-Aug-15 14:30N 58°32' W 136°04'714.1
2017-Aug-15 14:00N 58°25' W 135°59'612.0
2017-Aug-15 13:30N 58°20' W 135°55'714.6
2017-Aug-15 13:00N 58°18' W 135°42'814.9
2017-Aug-15 12:27N 58°14' W 135°27'62312.4
2017-Aug-13 10:14N 49°16' W 126°35'620.4
2017-Aug-13 09:57N 49°13' W 126°28'920.6
2017-Aug-13 09:30N 49°07' W 126°17'1020.3
2017-Aug-13 09:00N 49°02' W 126°04'1020.0
2017-Aug-13 08:30N 48°56' W 125°52'1020.1
2017-Aug-13 08:00N 48°50' W 125°40'1021.0
2017-Aug-13 07:30N 48°44' W 125°27'1122.2
2017-Aug-13 07:00N 48°39' W 125°11'1222.5
2017-Aug-13 06:29N 48°34' W 124°56'1122.5
2017-Aug-13 06:00N 48°30' W 124°41'1122.2
2017-Aug-13 05:30N 48°25' W 124°25'1121.2
2017-Aug-13 05:00N 48°21' W 124°10'1020.5
2017-Aug-13 04:30N 48°18' W 123°56'1020.6
2017-Aug-13 04:00N 48°16' W 123°41'1018.9
2017-Aug-13 03:30N 48°13' W 123°27'613.4
2017-Aug-13 03:01N 48°09' W 123°19'917.8
2017-Aug-13 02:30N 48°13' W 123°07'1018.5
2017-Aug-13 01:59N 48°12' W 122°53'817.0
2017-Aug-13 01:31N 48°09' W 122°42'816.7
2017-Aug-13 01:01N 48°01' W 122°37'918.1
2017-Aug-13 00:31N 47°54' W 122°29'1020.2
2017-Aug-13 00:01N 47°44' W 122°27'713.3
2017-Aug-12 23:30N 47°37' W 122°23'0 0.7
2017-Aug-12 22:58N 47°38' W 122°23'0 0.0
2017-Aug-12 22:29N 47°38' W 122°23'0 0.0
2017-Aug-12 21:59N 47°38' W 122°23'0 0.0
2017-Aug-12 21:29N 47°38' W 122°23'0 0.0
2017-Aug-12 20:59N 47°38' W 122°23'0 0.0
2017-Aug-12 20:29N 47°38' W 122°23'0 0.0
2017-Aug-12 19:59N 47°38' W 122°23'0 0.0
2017-Aug-12 19:25N 47°38' W 122°23'0 0.0
2017-Aug-12 19:00N 47°38' W 122°23'0 0.0
2017-Aug-12 18:28N 47°38' W 122°23'0 0.0
2017-Aug-12 18:00N 47°38' W 122°23'0 0.0
2017-Aug-12 17:28N 47°38' W 122°23'0 0.0
2017-Aug-12 16:58N 47°38' W 122°23'0 0.0
2017-Aug-12 16:30N 47°38' W 122°23'0 0.0
2017-Aug-12 15:58N 47°38' W 122°23'0 0.0
2017-Aug-12 15:28N 47°38' W 122°23'0 0.0
2017-Aug-12 14:58N 47°38' W 122°23'0 0.0
2017-Aug-12 14:30N 47°38' W 122°23'0 0.0
2017-Aug-12 13:58N 47°38' W 122°23'0 0.0
2017-Aug-12 13:28N 47°38' W 122°23'0 0.0
2017-Aug-12 12:58N 47°38' W 122°23'0 0.0
2017-Aug-12 12:29N 47°38' W 122°23'1 2.8
2017-Aug-12 12:01N 47°38' W 122°25'612.7
2017-Aug-12 11:30N 47°44' W 122°28'714.9
2017-Aug-12 11:01N 47°51' W 122°28'815.9
2017-Aug-12 10:31N 47°58' W 122°35'816.0
2017-Aug-12 10:00N 48°05' W 122°40'816.2
2017-Aug-12 09:30N 48°10' W 122°49'917.1
2017-Aug-12 09:01N 48°12' W 123°01'917.1
2017-Aug-12 08:31N 48°11' W 123°14'713.5
2017-Aug-12 08:01N 48°10' W 123°24'816.9
2017-Aug-12 07:31N 48°18' W 123°29'713.8
2017-Aug-12 07:01N 48°24' W 123°24'1 2.6
2017-Aug-12 06:30N 48°25' W 123°24'0 0.0
2017-Aug-12 06:00N 48°25' W 123°24'0 0.0
2017-Aug-12 05:29N 48°25' W 123°24'0 0.0
2017-Aug-12 04:59N 48°25' W 123°24'0 0.0
2017-Aug-12 04:29N 48°25' W 123°24'0 0.0
2017-Aug-12 03:58N 48°25' W 123°24'0 0.0
2017-Aug-12 03:25N 48°25' W 123°24'0 0.0
2017-Aug-12 02:57N 48°25' W 123°24'0 0.0
2017-Aug-12 02:29N 48°25' W 123°24'0 0.0
2017-Aug-12 01:58N 48°25' W 123°24'0 0.0
2017-Aug-12 01:20N 48°25' W 123°24'0 0.0
2017-Aug-12 01:00N 48°25' W 123°24'0 0.0
2017-Aug-12 00:27N 48°25' W 123°24'0 1.1
2017-Aug-12 00:00N 48°25' W 123°24'713.4
2017-Aug-11 23:30N 48°18' W 123°25'918.0
2017-Aug-11 23:00N 48°13' W 123°37'1020.4
2017-Aug-11 22:30N 48°13' W 123°52'1121.7
2017-Aug-11 22:00N 48°17' W 124°08'1121.0
2017-Aug-11 21:30N 48°22' W 124°22'1019.7
2017-Aug-11 21:00N 48°26' W 124°35'815.6
2017-Aug-11 20:30N 48°29' W 124°46'815.9
2017-Aug-11 20:00N 48°29' W 124°58'815.9
2017-Aug-11 19:30N 48°29' W 125°10'918.9
2017-Aug-11 19:00N 48°34' W 125°22'1121.7
2017-Aug-11 18:30N 48°41' W 125°35'1122.2
2017-Aug-11 18:00N 48°48' W 125°48'1121.7
2017-Aug-11 17:30N 48°54' W 126°01'1121.6
2017-Aug-11 17:00N 49°02' W 126°13'1122.0
2017-Aug-11 16:30N 49°10' W 126°25'1122.2
2017-Aug-11 16:00N 49°16' W 126°39'1121.1
2017-Aug-11 15:30N 49°24' W 126°50'1122.0
2017-Aug-11 15:00N 49°31' W 127°03'4821.8
2017-Aug-11 12:47N 50°04' W 127°58'620.6
2017-Aug-11 12:29N 50°09' W 128°04'1122.4
2017-Aug-11 12:00N 50°17' W 128°13'1122.8
2017-Aug-11 11:30N 50°27' W 128°23'1122.9
2017-Aug-11 11:00N 50°36' W 128°33'1122.6
2017-Aug-11 10:30N 50°46' W 128°43'1223.3
2017-Aug-11 10:01N 50°56' W 128°51'1223.3
2017-Aug-11 09:30N 51°07' W 128°59'1122.2
2017-Aug-11 09:00N 51°17' W 129°07'1122.1
2017-Aug-11 08:30N 51°27' W 129°16'1122.0
2017-Aug-11 08:00N 51°36' W 129°24'1122.1
2017-Aug-11 07:30N 51°46' W 129°32'1122.4
2017-Aug-11 07:00N 51°56' W 129°40'1122.7
2017-Aug-11 06:30N 52°07' W 129°47'1223.1
2017-Aug-11 06:01N 52°17' W 129°55'1223.0
2017-Aug-11 05:30N 52°28' W 130°03'1122.8
2017-Aug-11 05:00N 52°38' W 130°10'1323.4
2017-Aug-11 04:28N 52°50' W 130°19'2023.8
2017-Aug-11 03:37N 53°08' W 130°33'323.9
2017-Aug-11 03:29N 53°11' W 130°35'362 7.3
2017-Aug-09 02:13N 58°17' W 136°16'315.5
2017-Aug-09 02:00N 58°18' W 136°10'816.8
2017-Aug-09 01:30N 58°24' W 135°58'713.4
2017-Aug-09 01:00N 58°30' W 136°04'917.2
2017-Aug-09 00:30N 58°39' W 136°04'815.9
2017-Aug-09 00:00N 58°44' W 136°15'813.1
2017-Aug-08 23:24N 58°48' W 136°28'7 1.0
2017-Aug-08 16:30N 58°44' W 136°17'715.0
2017-Aug-08 16:00N 58°39' W 136°07'714.9
2017-Aug-08 15:30N 58°31' W 136°04'612.4
2017-Aug-08 15:01N 58°26' W 135°59'510.9
2017-Aug-08 14:30N 58°20' W 135°57'511.0
2017-Aug-08 14:01N 58°19' W 135°47'611.9
2017-Aug-08 13:30N 58°16' W 135°37'612.2
2017-Aug-08 12:58N 58°14' W 135°25'41810.4
2017-Aug-06 20:45N 51°45' W 131°00'719.9
2017-Aug-06 20:25N 51°40' W 130°53'921.0
2017-Aug-06 20:00N 51°34' W 130°43'1020.8
2017-Aug-06 19:30N 51°26' W 130°32'1620.3
2017-Aug-06 18:42N 51°15' W 130°13'420.2
2017-Aug-06 18:30N 51°12' W 130°09'1020.0
2017-Aug-06 18:00N 51°05' W 129°58'1020.0
2017-Aug-06 17:30N 50°57' W 129°47'1020.0
2017-Aug-06 17:00N 50°50' W 129°36'1020.8
2017-Aug-06 16:30N 50°43' W 129°25'1020.9
2017-Aug-06 16:00N 50°36' W 129°12'1020.6
2017-Aug-06 15:30N 50°29' W 128°60'1020.5
2017-Aug-06 15:00N 50°23' W 128°47'1020.4
2017-Aug-06 14:30N 50°17' W 128°35'7020.3
2017-Aug-06 11:03N 49°33' W 127°09'620.3
2017-Aug-06 10:44N 49°29' W 127°01'520.5
2017-Aug-06 10:29N 49°26' W 126°55'1020.9
2017-Aug-06 10:00N 49°20' W 126°43'1020.9
2017-Aug-06 09:30N 49°14' W 126°30'1020.9
2017-Aug-06 09:00N 49°08' W 126°17'1020.7
2017-Aug-06 08:30N 49°02' W 126°04'1020.4
2017-Aug-06 08:00N 48°56' W 125°51'  
Track history (hours):
 
Tides and Currents Weather Stations Pressure Air Temp Water Temp Dewpoint Dewpoint Depression Visibility Wind Speed Wind Dir Waves Ship Positions

Eurodam (Netherlands)

Last reported at 2017-Aug-16 07:47 UTC. Time now 2017-Aug-16 21:37 UTC.
Position N 58°18' W 136°14'.

Length 287 m; draft 8 m.

Type: Ship. MMSI: 245206000.

Date/timePositionNaut miles runAvg speedWind from/ knotsBaromVisibWave heightAir tempDewpointWater temp
2017-Aug-16 07:47N 58°18' W 136°14'619.6
2017-Aug-16 07:30N 58°20' W 136°04'1019.9
2017-Aug-16 07:00N 58°18' W 135°45'1019.1
2017-Aug-16 06:28N 58°13' W 135°28'1 0.1
2017-Aug-16 01:13N 58°13' W 135°27'418.6
2017-Aug-16 01:00N 58°14' W 135°34'918.6
2017-Aug-16 00:30N 58°19' W 135°50'714.3
2017-Aug-16 00:00N 58°24' W 135°58'611.5
2017-Aug-15 23:30N 58°29' W 136°03'815.2
2017-Aug-15 23:00N 58°37' W 136°03'714.6
2017-Aug-15 22:30N 58°43' W 136°11'3 0.5
2017-Aug-15 15:41N 58°45' W 136°16'312.4
2017-Aug-15 15:28N 58°43' W 136°13'612.3
2017-Aug-15 14:57N 58°38' W 136°06'612.8
2017-Aug-15 14:30N 58°32' W 136°04'714.1
2017-Aug-15 14:00N 58°25' W 135°59'612.0
2017-Aug-15 13:30N 58°20' W 135°55'714.6
2017-Aug-15 13:00N 58°18' W 135°42'814.9
2017-Aug-15 12:27N 58°14' W 135°27'62312.4
2017-Aug-13 10:14N 49°16' W 126°35'620.4
2017-Aug-13 09:57N 49°13' W 126°28'920.6
2017-Aug-13 09:30N 49°07' W 126°17'1020.3
2017-Aug-13 09:00N 49°02' W 126°04'1020.0
2017-Aug-13 08:30N 48°56' W 125°52'1020.1
2017-Aug-13 08:00N 48°50' W 125°40'1021.0
2017-Aug-13 07:30N 48°44' W 125°27'1122.2
2017-Aug-13 07:00N 48°39' W 125°11'1222.5
2017-Aug-13 06:29N 48°34' W 124°56'1122.5
2017-Aug-13 06:00N 48°30' W 124°41'1122.2
2017-Aug-13 05:30N 48°25' W 124°25'1121.2
2017-Aug-13 05:00N 48°21' W 124°10'1020.5
2017-Aug-13 04:30N 48°18' W 123°56'1020.6
2017-Aug-13 04:00N 48°16' W 123°41'1018.9
2017-Aug-13 03:30N 48°13' W 123°27'613.4
2017-Aug-13 03:01N 48°09' W 123°19'917.8
2017-Aug-13 02:30N 48°13' W 123°07'1018.5
2017-Aug-13 01:59N 48°12' W 122°53'817.0
2017-Aug-13 01:31N 48°09' W 122°42'816.7
2017-Aug-13 01:01N 48°01' W 122°37'918.1
2017-Aug-13 00:31N 47°54' W 122°29'1020.2
2017-Aug-13 00:01N 47°44' W 122°27'713.3
2017-Aug-12 23:30N 47°37' W 122°23'0 0.7
2017-Aug-12 22:58N 47°38' W 122°23'0 0.0
2017-Aug-12 22:29N 47°38' W 122°23'0 0.0
2017-Aug-12 21:59N 47°38' W 122°23'0 0.0
2017-Aug-12 21:29N 47°38' W 122°23'0 0.0
2017-Aug-12 20:59N 47°38' W 122°23'0 0.0
2017-Aug-12 20:29N 47°38' W 122°23'0 0.0
2017-Aug-12 19:59N 47°38' W 122°23'0 0.0
2017-Aug-12 19:25N 47°38' W 122°23'0 0.0
2017-Aug-12 19:00N 47°38' W 122°23'0 0.0
2017-Aug-12 18:28N 47°38' W 122°23'0 0.0
2017-Aug-12 18:00N 47°38' W 122°23'0 0.0
2017-Aug-12 17:28N 47°38' W 122°23'0 0.0
2017-Aug-12 16:58N 47°38' W 122°23'0 0.0
2017-Aug-12 16:30N 47°38' W 122°23'0 0.0
2017-Aug-12 15:58N 47°38' W 122°23'0 0.0
2017-Aug-12 15:28N 47°38' W 122°23'0 0.0
2017-Aug-12 14:58N 47°38' W 122°23'0 0.0
2017-Aug-12 14:30N 47°38' W 122°23'0 0.0
2017-Aug-12 13:58N 47°38' W 122°23'0 0.0
2017-Aug-12 13:28N 47°38' W 122°23'0 0.0
2017-Aug-12 12:58N 47°38' W 122°23'0 0.0
2017-Aug-12 12:29N 47°38' W 122°23'1 2.8
2017-Aug-12 12:01N 47°38' W 122°25'612.7
2017-Aug-12 11:30N 47°44' W 122°28'714.9
2017-Aug-12 11:01N 47°51' W 122°28'815.9
2017-Aug-12 10:31N 47°58' W 122°35'816.0
2017-Aug-12 10:00N 48°05' W 122°40'816.2
2017-Aug-12 09:30N 48°10' W 122°49'917.1
2017-Aug-12 09:01N 48°12' W 123°01'917.1
2017-Aug-12 08:31N 48°11' W 123°14'713.5
2017-Aug-12 08:01N 48°10' W 123°24'816.9
2017-Aug-12 07:31N 48°18' W 123°29'713.8
2017-Aug-12 07:01N 48°24' W 123°24'1 2.6
2017-Aug-12 06:30N 48°25' W 123°24'0 0.0
2017-Aug-12 06:00N 48°25' W 123°24'0 0.0
2017-Aug-12 05:29N 48°25' W 123°24'0 0.0
2017-Aug-12 04:59N 48°25' W 123°24'0 0.0
2017-Aug-12 04:29N 48°25' W 123°24'0 0.0
2017-Aug-12 03:58N 48°25' W 123°24'0 0.0
2017-Aug-12 03:25N 48°25' W 123°24'0 0.0
2017-Aug-12 02:57N 48°25' W 123°24'0 0.0
2017-Aug-12 02:29N 48°25' W 123°24'0 0.0
2017-Aug-12 01:58N 48°25' W 123°24'0 0.0
2017-Aug-12 01:20N 48°25' W 123°24'0 0.0
2017-Aug-12 01:00N 48°25' W 123°24'0 0.0
2017-Aug-12 00:27N 48°25' W 123°24'0 1.1
2017-Aug-12 00:00N 48°25' W 123°24'713.4
2017-Aug-11 23:30N 48°18' W 123°25'918.0
2017-Aug-11 23:00N 48°13' W 123°37'1020.4
2017-Aug-11 22:30N 48°13' W 123°52'1121.7
2017-Aug-11 22:00N 48°17' W 124°08'1121.0
2017-Aug-11 21:30N 48°22' W 124°22'1019.7
2017-Aug-11 21:00N 48°26' W 124°35'815.6
2017-Aug-11 20:30N 48°29' W 124°46'815.9
2017-Aug-11 20:00N 48°29' W 124°58'815.9
2017-Aug-11 19:30N 48°29' W 125°10'918.9
2017-Aug-11 19:00N 48°34' W 125°22'1121.7
2017-Aug-11 18:30N 48°41' W 125°35'1122.2
2017-Aug-11 18:00N 48°48' W 125°48'1121.7
2017-Aug-11 17:30N 48°54' W 126°01'1121.6
2017-Aug-11 17:00N 49°02' W 126°13'1122.0
2017-Aug-11 16:30N 49°10' W 126°25'1122.2
2017-Aug-11 16:00N 49°16' W 126°39'1121.1
2017-Aug-11 15:30N 49°24' W 126°50'1122.0
2017-Aug-11 15:00N 49°31' W 127°03'4821.8
2017-Aug-11 12:47N 50°04' W 127°58'620.6
2017-Aug-11 12:29N 50°09' W 128°04'1122.4
2017-Aug-11 12:00N 50°17' W 128°13'1122.8
2017-Aug-11 11:30N 50°27' W 128°23'1122.9
2017-Aug-11 11:00N 50°36' W 128°33'1122.6
2017-Aug-11 10:30N 50°46' W 128°43'1223.3
2017-Aug-11 10:01N 50°56' W 128°51'1223.3
2017-Aug-11 09:30N 51°07' W 128°59'1122.2
2017-Aug-11 09:00N 51°17' W 129°07'1122.1
2017-Aug-11 08:30N 51°27' W 129°16'1122.0
2017-Aug-11 08:00N 51°36' W 129°24'1122.1
2017-Aug-11 07:30N 51°46' W 129°32'1122.4
2017-Aug-11 07:00N 51°56' W 129°40'1122.7
2017-Aug-11 06:30N 52°07' W 129°47'1223.1
2017-Aug-11 06:01N 52°17' W 129°55'1223.0
2017-Aug-11 05:30N 52°28' W 130°03'1122.8
2017-Aug-11 05:00N 52°38' W 130°10'1323.4
2017-Aug-11 04:28N 52°50' W 130°19'2023.8
2017-Aug-11 03:37N 53°08' W 130°33'323.9
2017-Aug-11 03:29N 53°11' W 130°35'362 7.3
2017-Aug-09 02:13N 58°17' W 136°16'315.5
2017-Aug-09 02:00N 58°18' W 136°10'816.8
2017-Aug-09 01:30N 58°24' W 135°58'713.4
2017-Aug-09 01:00N 58°30' W 136°04'917.2
2017-Aug-09 00:30N 58°39' W 136°04'815.9
2017-Aug-09 00:00N 58°44' W 136°15'813.1
2017-Aug-08 23:24N 58°48' W 136°28'7 1.0
2017-Aug-08 16:30N 58°44' W 136°17'715.0
2017-Aug-08 16:00N 58°39' W 136°07'714.9
2017-Aug-08 15:30N 58°31' W 136°04'612.4
2017-Aug-08 15:01N 58°26' W 135°59'510.9
2017-Aug-08 14:30N 58°20' W 135°57'511.0
2017-Aug-08 14:01N 58°19' W 135°47'611.9
2017-Aug-08 13:30N 58°16' W 135°37'612.2
2017-Aug-08 12:58N 58°14' W 135°25'41810.4
2017-Aug-06 20:45N 51°45' W 131°00'719.9
2017-Aug-06 20:25N 51°40' W 130°53'921.0
2017-Aug-06 20:00N 51°34' W 130°43'1020.8
2017-Aug-06 19:30N 51°26' W 130°32'1620.3
2017-Aug-06 18:42N 51°15' W 130°13'420.2
2017-Aug-06 18:30N 51°12' W 130°09'1020.0
2017-Aug-06 18:00N 51°05' W 129°58'1020.0
2017-Aug-06 17:30N 50°57' W 129°47'1020.0
2017-Aug-06 17:00N 50°50' W 129°36'1020.8
2017-Aug-06 16:30N 50°43' W 129°25'1020.9
2017-Aug-06 16:00N 50°36' W 129°12'1020.6
2017-Aug-06 15:30N 50°29' W 128°60'1020.5
2017-Aug-06 15:00N 50°23' W 128°47'1020.4
2017-Aug-06 14:30N 50°17' W 128°35'7020.3
2017-Aug-06 11:03N 49°33' W 127°09'620.3
2017-Aug-06 10:44N 49°29' W 127°01'520.5
2017-Aug-06 10:29N 49°26' W 126°55'1020.9
2017-Aug-06 10:00N 49°20' W 126°43'1020.9
2017-Aug-06 09:30N 49°14' W 126°30'1020.9
2017-Aug-06 09:00N 49°08' W 126°17'1020.7
2017-Aug-06 08:30N 49°02' W 126°04'1020.4
2017-Aug-06 08:00N 48°56' W 125°51'  

Dump ship's entire track history